sensor_id;sensor_type;location;lat;lon;timestamp;P1;durP1;ratioP1;P2;durP2;ratioP2
52184;SDS011;38160;52.876;18.778;2022-08-25T00:02:37;10.25;;;3.10;;
52184;SDS011;38160;52.876;18.778;2022-08-25T00:05:09;8.93;;;2.95;;
52184;SDS011;38160;52.876;18.778;2022-08-25T00:07:40;7.83;;;3.47;;
52184;SDS011;38160;52.876;18.778;2022-08-25T00:10:12;14.35;;;3.40;;
52184;SDS011;38160;52.876;18.778;2022-08-25T00:12:43;9.58;;;3.10;;
52184;SDS011;38160;52.876;18.778;2022-08-25T00:15:15;7.28;;;2.98;;
52184;SDS011;38160;52.876;18.778;2022-08-25T00:17:47;10.60;;;3.00;;
52184;SDS011;38160;52.876;18.778;2022-08-25T00:20:19;9.75;;;2.98;;
52184;SDS011;38160;52.876;18.778;2022-08-25T00:22:52;9.43;;;2.70;;
52184;SDS011;38160;52.876;18.778;2022-08-25T00:25:25;8.05;;;2.80;;
52184;SDS011;38160;52.876;18.778;2022-08-25T00:27:58;12.47;;;3.50;;
52184;SDS011;38160;52.876;18.778;2022-08-25T00:30:30;7.42;;;2.80;;
52184;SDS011;38160;52.876;18.778;2022-08-25T00:33:02;8.30;;;3.42;;
52184;SDS011;38160;52.876;18.778;2022-08-25T00:35:34;10.00;;;3.25;;
52184;SDS011;38160;52.876;18.778;2022-08-25T00:38:11;9.95;;;3.52;;
52184;SDS011;38160;52.876;18.778;2022-08-25T00:40:43;12.75;;;3.02;;
52184;SDS011;38160;52.876;18.778;2022-08-25T00:43:16;8.85;;;2.80;;
52184;SDS011;38160;52.876;18.778;2022-08-25T00:45:49;9.18;;;3.15;;
52184;SDS011;38160;52.876;18.778;2022-08-25T00:48:21;9.68;;;3.22;;
52184;SDS011;38160;52.876;18.778;2022-08-25T00:50:54;8.18;;;3.87;;
52184;SDS011;38160;52.876;18.778;2022-08-25T00:53:27;9.73;;;3.02;;
52184;SDS011;38160;52.876;18.778;2022-08-25T00:56:02;11.43;;;3.62;;
52184;SDS011;38160;52.876;18.778;2022-08-25T00:58:36;10.82;;;3.60;;
52184;SDS011;38160;52.876;18.778;2022-08-25T01:01:09;12.55;;;3.85;;
52184;SDS011;38160;52.876;18.778;2022-08-25T01:03:41;8.93;;;3.37;;
52184;SDS011;38160;52.876;18.778;2022-08-25T01:06:13;12.13;;;3.50;;
52184;SDS011;38160;52.876;18.778;2022-08-25T01:08:47;9.93;;;3.47;;
52184;SDS011;38160;52.876;18.778;2022-08-25T01:11:19;8.38;;;2.85;;
52184;SDS011;38160;52.876;18.778;2022-08-25T01:13:53;11.10;;;3.83;;
52184;SDS011;38160;52.876;18.778;2022-08-25T01:16:27;10.88;;;3.30;;
52184;SDS011;38160;52.876;18.778;2022-08-25T01:18:59;9.68;;;3.72;;
52184;SDS011;38160;52.876;18.778;2022-08-25T01:21:39;11.33;;;3.77;;
52184;SDS011;38160;52.876;18.778;2022-08-25T01:24:22;11.60;;;3.77;;
52184;SDS011;38160;52.876;18.778;2022-08-25T01:26:56;11.63;;;4.25;;
52184;SDS011;38160;52.876;18.778;2022-08-25T01:29:28;13.85;;;3.62;;
52184;SDS011;38160;52.876;18.778;2022-08-25T01:32:02;11.10;;;3.98;;
52184;SDS011;38160;52.876;18.778;2022-08-25T01:34:38;11.80;;;3.72;;
52184;SDS011;38160;52.876;18.778;2022-08-25T01:37:12;16.40;;;4.15;;
52184;SDS011;38160;52.876;18.778;2022-08-25T01:39:46;10.50;;;4.03;;
52184;SDS011;38160;52.876;18.778;2022-08-25T01:42:23;10.93;;;3.90;;
52184;SDS011;38160;52.876;18.778;2022-08-25T01:45:14;11.57;;;4.15;;
52184;SDS011;38160;52.876;18.778;2022-08-25T01:47:46;11.70;;;4.55;;
52184;SDS011;38160;52.876;18.778;2022-08-25T01:50:17;10.10;;;4.12;;
52184;SDS011;38160;52.876;18.778;2022-08-25T01:52:53;11.12;;;3.98;;
52184;SDS011;38160;52.876;18.778;2022-08-25T01:55:38;10.00;;;4.03;;
52184;SDS011;38160;52.876;18.778;2022-08-25T01:58:23;11.53;;;4.08;;
52184;SDS011;38160;52.876;18.778;2022-08-25T02:01:02;12.88;;;4.85;;
52184;SDS011;38160;52.876;18.778;2022-08-25T02:07:13;9.68;;;4.17;;
52184;SDS011;38160;52.876;18.778;2022-08-25T02:09:45;12.73;;;4.22;;
52184;SDS011;38160;52.876;18.778;2022-08-25T02:12:17;11.50;;;4.40;;
52184;SDS011;38160;52.876;18.778;2022-08-25T02:14:49;10.23;;;4.62;;
52184;SDS011;38160;52.876;18.778;2022-08-25T02:17:21;11.97;;;4.62;;
52184;SDS011;38160;52.876;18.778;2022-08-25T02:19:53;12.03;;;5.08;;
52184;SDS011;38160;52.876;18.778;2022-08-25T02:22:26;11.20;;;4.67;;
52184;SDS011;38160;52.876;18.778;2022-08-25T02:24:58;13.00;;;4.05;;
52184;SDS011;38160;52.876;18.778;2022-08-25T02:27:30;8.83;;;4.00;;
52184;SDS011;38160;52.876;18.778;2022-08-25T02:30:03;13.30;;;4.17;;
52184;SDS011;38160;52.876;18.778;2022-08-25T02:32:35;11.60;;;4.80;;
52184;SDS011;38160;52.876;18.778;2022-08-25T02:35:07;14.50;;;4.85;;
52184;SDS011;38160;52.876;18.778;2022-08-25T02:37:39;9.73;;;4.42;;
52184;SDS011;38160;52.876;18.778;2022-08-25T02:40:11;13.38;;;4.95;;
52184;SDS011;38160;52.876;18.778;2022-08-25T02:49:35;13.23;;;4.03;;
52184;SDS011;38160;52.876;18.778;2022-08-25T02:52:06;12.43;;;4.25;;
52184;SDS011;38160;52.876;18.778;2022-08-25T02:54:47;9.78;;;4.28;;
52184;SDS011;38160;52.876;18.778;2022-08-25T02:57:17;10.90;;;3.72;;
52184;SDS011;38160;52.876;18.778;2022-08-25T03:00:03;11.05;;;4.67;;
52184;SDS011;38160;52.876;18.778;2022-08-25T03:09:58;14.87;;;4.47;;
52184;SDS011;38160;52.876;18.778;2022-08-25T03:12:29;13.65;;;4.50;;
52184;SDS011;38160;52.876;18.778;2022-08-25T03:15:03;10.48;;;4.08;;
52184;SDS011;38160;52.876;18.778;2022-08-25T03:17:39;9.03;;;4.17;;
52184;SDS011;38160;52.876;18.778;2022-08-25T03:20:19;12.00;;;4.03;;
52184;SDS011;38160;52.876;18.778;2022-08-25T03:22:55;11.95;;;4.20;;
52184;SDS011;38160;52.876;18.778;2022-08-25T03:25:34;10.53;;;3.80;;
52184;SDS011;38160;52.876;18.778;2022-08-25T03:35:00;14.85;;;4.10;;
52184;SDS011;38160;52.876;18.778;2022-08-25T03:37:58;13.25;;;4.00;;
52184;SDS011;38160;52.876;18.778;2022-08-25T03:40:31;11.90;;;3.90;;
52184;SDS011;38160;52.876;18.778;2022-08-25T03:43:04;12.90;;;4.35;;
52184;SDS011;38160;52.876;18.778;2022-08-25T03:45:39;10.75;;;4.00;;
52184;SDS011;38160;52.876;18.778;2022-08-25T03:48:15;12.68;;;3.77;;
52184;SDS011;38160;52.876;18.778;2022-08-25T03:53:30;11.43;;;4.95;;
52184;SDS011;38160;52.876;18.778;2022-08-25T03:56:02;13.88;;;4.55;;
52184;SDS011;38160;52.876;18.778;2022-08-25T03:58:40;11.63;;;4.20;;
52184;SDS011;38160;52.876;18.778;2022-08-25T04:01:18;9.78;;;3.92;;
52184;SDS011;38160;52.876;18.778;2022-08-25T04:06:57;13.75;;;5.00;;
52184;SDS011;38160;52.876;18.778;2022-08-25T04:09:29;15.45;;;5.37;;
52184;SDS011;38160;52.876;18.778;2022-08-25T04:12:01;15.38;;;5.08;;
52184;SDS011;38160;52.876;18.778;2022-08-25T04:14:33;11.88;;;4.70;;
52184;SDS011;38160;52.876;18.778;2022-08-25T04:17:06;16.87;;;5.12;;
52184;SDS011;38160;52.876;18.778;2022-08-25T04:19:44;13.70;;;4.80;;
52184;SDS011;38160;52.876;18.778;2022-08-25T04:22:16;10.15;;;5.22;;
52184;SDS011;38160;52.876;18.778;2022-08-25T04:34:37;14.20;;;4.70;;
52184;SDS011;38160;52.876;18.778;2022-08-25T04:37:16;14.95;;;5.10;;
52184;SDS011;38160;52.876;18.778;2022-08-25T04:39:58;13.20;;;5.05;;
52184;SDS011;38160;52.876;18.778;2022-08-25T04:42:53;10.03;;;5.08;;
52184;SDS011;38160;52.876;18.778;2022-08-25T04:45:25;15.40;;;5.60;;
52184;SDS011;38160;52.876;18.778;2022-08-25T04:47:58;16.20;;;5.47;;
52184;SDS011;38160;52.876;18.778;2022-08-25T04:50:31;11.12;;;5.25;;
52184;SDS011;38160;52.876;18.778;2022-08-25T04:53:03;12.58;;;5.47;;
52184;SDS011;38160;52.876;18.778;2022-08-25T04:55:39;15.18;;;5.45;;
52184;SDS011;38160;52.876;18.778;2022-08-25T04:58:14;12.73;;;4.78;;
52184;SDS011;38160;52.876;18.778;2022-08-25T05:00:46;15.15;;;5.90;;
52184;SDS011;38160;52.876;18.778;2022-08-25T05:03:18;15.43;;;5.42;;
52184;SDS011;38160;52.876;18.778;2022-08-25T05:05:50;15.80;;;5.28;;
52184;SDS011;38160;52.876;18.778;2022-08-25T05:08:22;12.80;;;5.85;;
52184;SDS011;38160;52.876;18.778;2022-08-25T05:10:54;13.40;;;5.15;;
52184;SDS011;38160;52.876;18.778;2022-08-25T05:13:26;13.28;;;5.00;;
52184;SDS011;38160;52.876;18.778;2022-08-25T05:15:58;12.33;;;5.03;;
52184;SDS011;38160;52.876;18.778;2022-08-25T05:18:31;13.10;;;5.60;;
52184;SDS011;38160;52.876;18.778;2022-08-25T05:21:06;12.47;;;5.72;;
52184;SDS011;38160;52.876;18.778;2022-08-25T05:23:42;13.08;;;5.70;;
52184;SDS011;38160;52.876;18.778;2022-08-25T05:26:16;13.38;;;6.08;;
52184;SDS011;38160;52.876;18.778;2022-08-25T05:28:51;13.38;;;6.22;;
52184;SDS011;38160;52.876;18.778;2022-08-25T05:33:57;13.55;;;5.97;;
52184;SDS011;38160;52.876;18.778;2022-08-25T05:36:30;16.70;;;6.50;;
52184;SDS011;38160;52.876;18.778;2022-08-25T05:39:02;16.42;;;6.42;;
52184;SDS011;38160;52.876;18.778;2022-08-25T05:41:34;14.00;;;6.08;;
52184;SDS011;38160;52.876;18.778;2022-08-25T05:44:10;13.43;;;5.90;;
52184;SDS011;38160;52.876;18.778;2022-08-25T05:49:58;13.10;;;6.03;;
52184;SDS011;38160;52.876;18.778;2022-08-25T05:52:31;16.95;;;6.53;;
52184;SDS011;38160;52.876;18.778;2022-08-25T05:55:03;19.35;;;6.70;;
52184;SDS011;38160;52.876;18.778;2022-08-25T05:57:35;13.10;;;6.30;;
52184;SDS011;38160;52.876;18.778;2022-08-25T06:13:34;16.32;;;6.70;;
52184;SDS011;38160;52.876;18.778;2022-08-25T06:16:05;31.77;;;7.37;;
52184;SDS011;38160;52.876;18.778;2022-08-25T06:18:37;34.40;;;7.40;;
52184;SDS011;38160;52.876;18.778;2022-08-25T06:21:11;18.15;;;5.95;;
52184;SDS011;38160;52.876;18.778;2022-08-25T06:26:16;26.73;;;6.65;;
52184;SDS011;38160;52.876;18.778;2022-08-25T06:35:22;32.65;;;7.25;;
52184;SDS011;38160;52.876;18.778;2022-08-25T06:37:54;17.73;;;6.58;;
52184;SDS011;38160;52.876;18.778;2022-08-25T06:40:26;23.07;;;6.90;;
52184;SDS011;38160;52.876;18.778;2022-08-25T06:42:57;19.82;;;6.28;;
52184;SDS011;38160;52.876;18.778;2022-08-25T06:45:29;11.45;;;5.70;;
52184;SDS011;38160;52.876;18.778;2022-08-25T06:48:01;22.48;;;6.40;;
52184;SDS011;38160;52.876;18.778;2022-08-25T06:50:33;12.93;;;6.37;;
52184;SDS011;38160;52.876;18.778;2022-08-25T06:53:06;17.50;;;6.45;;
52184;SDS011;38160;52.876;18.778;2022-08-25T06:55:39;17.45;;;7.00;;
52184;SDS011;38160;52.876;18.778;2022-08-25T06:58:10;17.75;;;6.22;;
52184;SDS011;38160;52.876;18.778;2022-08-25T07:00:42;24.77;;;7.17;;
52184;SDS011;38160;52.876;18.778;2022-08-25T07:03:14;17.52;;;6.35;;
52184;SDS011;38160;52.876;18.778;2022-08-25T07:05:50;18.77;;;6.20;;
52184;SDS011;38160;52.876;18.778;2022-08-25T07:08:24;18.32;;;5.92;;
52184;SDS011;38160;52.876;18.778;2022-08-25T07:10:57;15.45;;;6.15;;
52184;SDS011;38160;52.876;18.778;2022-08-25T07:13:31;24.12;;;6.47;;
52184;SDS011;38160;52.876;18.778;2022-08-25T07:16:03;22.58;;;6.92;;
52184;SDS011;38160;52.876;18.778;2022-08-25T07:18:36;15.48;;;6.65;;
52184;SDS011;38160;52.876;18.778;2022-08-25T07:21:08;26.97;;;7.33;;
52184;SDS011;38160;52.876;18.778;2022-08-25T07:23:42;16.73;;;6.72;;
52184;SDS011;38160;52.876;18.778;2022-08-25T07:26:23;17.85;;;6.95;;
52184;SDS011;38160;52.876;18.778;2022-08-25T07:28:53;13.62;;;6.40;;
52184;SDS011;38160;52.876;18.778;2022-08-25T07:31:26;18.70;;;7.00;;
52184;SDS011;38160;52.876;18.778;2022-08-25T07:33:58;14.33;;;6.78;;
52184;SDS011;38160;52.876;18.778;2022-08-25T07:36:48;16.93;;;6.90;;
52184;SDS011;38160;52.876;18.778;2022-08-25T07:39:20;17.12;;;6.67;;
52184;SDS011;38160;52.876;18.778;2022-08-25T07:41:52;16.55;;;6.50;;
52184;SDS011;38160;52.876;18.778;2022-08-25T07:44:30;14.47;;;6.90;;
52184;SDS011;38160;52.876;18.778;2022-08-25T07:47:08;16.12;;;6.60;;
52184;SDS011;38160;52.876;18.778;2022-08-25T07:49:40;15.80;;;6.37;;
52184;SDS011;38160;52.876;18.778;2022-08-25T07:52:12;17.70;;;6.65;;
52184;SDS011;38160;52.876;18.778;2022-08-25T07:54:45;17.95;;;7.47;;
52184;SDS011;38160;52.876;18.778;2022-08-25T07:57:22;14.78;;;6.85;;
52184;SDS011;38160;52.876;18.778;2022-08-25T07:59:56;17.37;;;7.03;;
52184;SDS011;38160;52.876;18.778;2022-08-25T08:02:29;18.07;;;6.80;;
52184;SDS011;38160;52.876;18.778;2022-08-25T08:05:18;15.90;;;7.05;;
52184;SDS011;38160;52.876;18.778;2022-08-25T08:07:53;17.00;;;7.45;;
52184;SDS011;38160;52.876;18.778;2022-08-25T08:17:40;19.40;;;7.37;;
52184;SDS011;38160;52.876;18.778;2022-08-25T08:23:07;15.98;;;7.37;;
52184;SDS011;38160;52.876;18.778;2022-08-25T08:25:41;19.55;;;7.83;;
52184;SDS011;38160;52.876;18.778;2022-08-25T08:28:12;17.55;;;7.97;;
52184;SDS011;38160;52.876;18.778;2022-08-25T08:30:46;17.40;;;8.15;;
52184;SDS011;38160;52.876;18.778;2022-08-25T08:33:18;18.82;;;8.63;;
52184;SDS011;38160;52.876;18.778;2022-08-25T08:35:56;15.95;;;7.53;;
52184;SDS011;38160;52.876;18.778;2022-08-25T08:38:36;15.70;;;7.40;;
52184;SDS011;38160;52.876;18.778;2022-08-25T08:47:20;22.10;;;7.37;;
52184;SDS011;38160;52.876;18.778;2022-08-25T08:50:33;14.23;;;6.80;;
52184;SDS011;38160;52.876;18.778;2022-08-25T08:53:17;14.40;;;6.70;;
52184;SDS011;38160;52.876;18.778;2022-08-25T08:56:04;17.62;;;6.58;;
52184;SDS011;38160;52.876;18.778;2022-08-25T08:58:39;19.82;;;6.70;;
52184;SDS011;38160;52.876;18.778;2022-08-25T09:01:30;16.65;;;6.25;;
52184;SDS011;38160;52.876;18.778;2022-08-25T09:04:54;17.20;;;5.92;;
52184;SDS011;38160;52.876;18.778;2022-08-25T09:06:51;19.82;;;5.78;;
52184;SDS011;38160;52.876;18.778;2022-08-25T09:09:26;13.68;;;5.20;;
52184;SDS011;38160;52.876;18.778;2022-08-25T09:12:10;18.12;;;6.00;;
52184;SDS011;38160;52.876;18.778;2022-08-25T09:15:18;15.80;;;5.00;;
52184;SDS011;38160;52.876;18.778;2022-08-25T09:24:28;16.25;;;7.05;;
52184;SDS011;38160;52.876;18.778;2022-08-25T09:27:27;10.40;;;4.33;;
52184;SDS011;38160;52.876;18.778;2022-08-25T09:30:16;12.88;;;6.00;;
52184;SDS011;38160;52.876;18.778;2022-08-25T09:32:54;12.95;;;5.10;;
52184;SDS011;38160;52.876;18.778;2022-08-25T09:35:34;12.90;;;4.58;;
52184;SDS011;38160;52.876;18.778;2022-08-25T09:38:10;12.03;;;6.58;;
52184;SDS011;38160;52.876;18.778;2022-08-25T09:40:47;15.43;;;6.60;;
52184;SDS011;38160;52.876;18.778;2022-08-25T09:43:24;15.08;;;4.35;;
52184;SDS011;38160;52.876;18.778;2022-08-25T09:46:15;17.77;;;5.75;;
52184;SDS011;38160;52.876;18.778;2022-08-25T09:48:57;12.98;;;4.12;;
52184;SDS011;38160;52.876;18.778;2022-08-25T09:51:43;16.00;;;4.85;;
52184;SDS011;38160;52.876;18.778;2022-08-25T09:54:17;9.25;;;3.70;;
52184;SDS011;38160;52.876;18.778;2022-08-25T09:56:54;10.88;;;3.90;;
52184;SDS011;38160;52.876;18.778;2022-08-25T09:59:30;12.63;;;5.95;;
52184;SDS011;38160;52.876;18.778;2022-08-25T10:02:22;9.30;;;3.45;;
52184;SDS011;38160;52.876;18.778;2022-08-25T10:04:57;10.55;;;4.87;;
52184;SDS011;38160;52.876;18.778;2022-08-25T10:07:30;15.70;;;4.15;;
52184;SDS011;38160;52.876;18.778;2022-08-25T10:10:21;10.63;;;4.55;;
52184;SDS011;38160;52.876;18.778;2022-08-25T10:13:00;12.40;;;5.08;;
52184;SDS011;38160;52.876;18.778;2022-08-25T10:15:36;13.90;;;5.33;;
52184;SDS011;38160;52.876;18.778;2022-08-25T10:21:03;11.90;;;4.12;;
52184;SDS011;38160;52.876;18.778;2022-08-25T10:23:48;14.53;;;3.98;;
52184;SDS011;38160;52.876;18.778;2022-08-25T10:26:47;12.03;;;4.33;;
52184;SDS011;38160;52.876;18.778;2022-08-25T10:36:11;15.30;;;6.15;;
52184;SDS011;38160;52.876;18.778;2022-08-25T10:38:56;8.73;;;4.22;;
52184;SDS011;38160;52.876;18.778;2022-08-25T10:41:45;10.32;;;4.05;;
52184;SDS011;38160;52.876;18.778;2022-08-25T10:44:28;9.10;;;4.03;;
52184;SDS011;38160;52.876;18.778;2022-08-25T10:47:46;13.72;;;4.25;;
52184;SDS011;38160;52.876;18.778;2022-08-25T10:50:40;11.68;;;6.28;;
52184;SDS011;38160;52.876;18.778;2022-08-25T10:53:35;10.85;;;4.20;;
52184;SDS011;38160;52.876;18.778;2022-08-25T11:05:57;16.27;;;7.03;;
52184;SDS011;38160;52.876;18.778;2022-08-25T11:08:39;15.53;;;6.30;;
52184;SDS011;38160;52.876;18.778;2022-08-25T11:11:31;17.73;;;4.83;;
52184;SDS011;38160;52.876;18.778;2022-08-25T11:14:10;14.00;;;4.40;;
52184;SDS011;38160;52.876;18.778;2022-08-25T11:17:05;16.27;;;4.83;;
52184;SDS011;38160;52.876;18.778;2022-08-25T11:19:48;18.65;;;4.83;;
52184;SDS011;38160;52.876;18.778;2022-08-25T11:22:28;14.18;;;4.80;;
52184;SDS011;38160;52.876;18.778;2022-08-25T11:27:59;14.20;;;4.97;;
52184;SDS011;38160;52.876;18.778;2022-08-25T11:30:50;11.35;;;5.28;;
52184;SDS011;38160;52.876;18.778;2022-08-25T11:33:23;14.55;;;5.00;;
52184;SDS011;38160;52.876;18.778;2022-08-25T11:45:20;11.65;;;4.33;;
52184;SDS011;38160;52.876;18.778;2022-08-25T11:50:57;14.90;;;5.08;;
52184;SDS011;38160;52.876;18.778;2022-08-25T11:53:42;11.05;;;4.58;;
52184;SDS011;38160;52.876;18.778;2022-08-25T11:56:32;15.08;;;5.95;;
52184;SDS011;38160;52.876;18.778;2022-08-25T11:59:07;16.35;;;6.35;;
52184;SDS011;38160;52.876;18.778;2022-08-25T12:04:38;16.27;;;4.65;;
52184;SDS011;38160;52.876;18.778;2022-08-25T12:07:16;14.73;;;4.37;;
52184;SDS011;38160;52.876;18.778;2022-08-25T12:12:39;24.43;;;8.70;;
52184;SDS011;38160;52.876;18.778;2022-08-25T12:15:20;17.92;;;4.80;;
52184;SDS011;38160;52.876;18.778;2022-08-25T12:18:14;18.42;;;5.12;;
52184;SDS011;38160;52.876;18.778;2022-08-25T12:21:12;21.50;;;4.87;;
52184;SDS011;38160;52.876;18.778;2022-08-25T12:29:44;13.65;;;3.95;;
52184;SDS011;38160;52.876;18.778;2022-08-25T12:36:08;23.00;;;5.05;;
52184;SDS011;38160;52.876;18.778;2022-08-25T12:44:44;27.87;;;7.05;;
52184;SDS011;38160;52.876;18.778;2022-08-25T12:53:15;17.05;;;4.92;;
52184;SDS011;38160;52.876;18.778;2022-08-25T12:56:21;18.23;;;5.17;;
52184;SDS011;38160;52.876;18.778;2022-08-25T13:05:34;22.40;;;5.30;;
52184;SDS011;38160;52.876;18.778;2022-08-25T13:20:23;20.25;;;5.28;;
52184;SDS011;38160;52.876;18.778;2022-08-25T13:23:10;20.85;;;5.20;;
52184;SDS011;38160;52.876;18.778;2022-08-25T13:29:48;21.37;;;5.50;;
52184;SDS011;38160;52.876;18.778;2022-08-25T13:32:28;19.75;;;5.00;;
52184;SDS011;38160;52.876;18.778;2022-08-25T13:38:18;15.28;;;6.22;;
52184;SDS011;38160;52.876;18.778;2022-08-25T13:43:59;22.35;;;6.00;;
52184;SDS011;38160;52.876;18.778;2022-08-25T13:46:34;20.37;;;5.28;;
52184;SDS011;38160;52.876;18.778;2022-08-25T13:49:26;19.25;;;5.20;;
52184;SDS011;38160;52.876;18.778;2022-08-25T13:52:37;20.23;;;5.35;;
52184;SDS011;38160;52.876;18.778;2022-08-25T13:58:53;20.23;;;6.25;;
52184;SDS011;38160;52.876;18.778;2022-08-25T14:14:02;18.87;;;5.25;;
52184;SDS011;38160;52.876;18.778;2022-08-25T14:16:38;22.52;;;4.72;;
52184;SDS011;38160;52.876;18.778;2022-08-25T14:32:40;22.03;;;5.77;;
52184;SDS011;38160;52.876;18.778;2022-08-25T14:35:25;18.60;;;5.78;;
52184;SDS011;38160;52.876;18.778;2022-08-25T14:37:56;21.73;;;5.75;;
52184;SDS011;38160;52.876;18.778;2022-08-25T14:40:29;25.08;;;5.62;;
52184;SDS011;38160;52.876;18.778;2022-08-25T14:43:01;23.18;;;5.60;;
52184;SDS011;38160;52.876;18.778;2022-08-25T14:45:33;18.25;;;5.17;;
52184;SDS011;38160;52.876;18.778;2022-08-25T14:48:08;18.65;;;5.58;;
52184;SDS011;38160;52.876;18.778;2022-08-25T14:50:54;25.17;;;5.97;;
52184;SDS011;38160;52.876;18.778;2022-08-25T14:53:28;24.20;;;5.72;;
52184;SDS011;38160;52.876;18.778;2022-08-25T14:56:00;18.80;;;5.40;;
52184;SDS011;38160;52.876;18.778;2022-08-25T14:58:32;23.07;;;6.28;;
52184;SDS011;38160;52.876;18.778;2022-08-25T15:01:04;15.95;;;5.15;;
52184;SDS011;38160;52.876;18.778;2022-08-25T15:03:38;29.07;;;6.20;;
52184;SDS011;38160;52.876;18.778;2022-08-25T15:06:19;20.65;;;5.40;;
52184;SDS011;38160;52.876;18.778;2022-08-25T15:08:50;28.95;;;5.70;;
52184;SDS011;38160;52.876;18.778;2022-08-25T15:14:42;31.33;;;7.03;;
52184;SDS011;38160;52.876;18.778;2022-08-25T15:17:16;22.52;;;5.72;;
52184;SDS011;38160;52.876;18.778;2022-08-25T15:19:52;19.07;;;5.77;;
52184;SDS011;38160;52.876;18.778;2022-08-25T15:22:26;23.20;;;5.78;;
52184;SDS011;38160;52.876;18.778;2022-08-25T15:24:58;23.07;;;5.83;;
52184;SDS011;38160;52.876;18.778;2022-08-25T15:27:30;25.40;;;6.20;;
52184;SDS011;38160;52.876;18.778;2022-08-25T15:30:03;27.87;;;6.42;;
52184;SDS011;38160;52.876;18.778;2022-08-25T15:35:12;26.57;;;6.87;;
52184;SDS011;38160;52.876;18.778;2022-08-25T15:37:46;28.52;;;6.15;;
52184;SDS011;38160;52.876;18.778;2022-08-25T15:40:18;22.82;;;5.97;;
52184;SDS011;38160;52.876;18.778;2022-08-25T15:42:50;21.33;;;5.75;;
52184;SDS011;38160;52.876;18.778;2022-08-25T15:45:24;24.07;;;6.25;;
52184;SDS011;38160;52.876;18.778;2022-08-25T15:47:56;23.38;;;5.70;;
52184;SDS011;38160;52.876;18.778;2022-08-25T15:50:28;25.55;;;6.03;;
52184;SDS011;38160;52.876;18.778;2022-08-25T15:53:00;18.20;;;6.03;;
52184;SDS011;38160;52.876;18.778;2022-08-25T15:55:41;20.05;;;6.25;;
52184;SDS011;38160;52.876;18.778;2022-08-25T15:58:20;26.57;;;6.15;;
52184;SDS011;38160;52.876;18.778;2022-08-25T16:01:00;26.07;;;6.03;;
52184;SDS011;38160;52.876;18.778;2022-08-25T16:03:41;31.73;;;6.35;;
52184;SDS011;38160;52.876;18.778;2022-08-25T16:06:29;23.05;;;7.30;;
52184;SDS011;38160;52.876;18.778;2022-08-25T16:09:22;24.90;;;7.42;;
52184;SDS011;38160;52.876;18.778;2022-08-25T16:11:51;32.23;;;7.22;;
52184;SDS011;38160;52.876;18.778;2022-08-25T16:14:23;26.87;;;7.15;;
52184;SDS011;38160;52.876;18.778;2022-08-25T16:16:56;24.32;;;6.33;;
52184;SDS011;38160;52.876;18.778;2022-08-25T16:20:30;26.57;;;6.12;;
52184;SDS011;38160;52.876;18.778;2022-08-25T16:27:45;26.50;;;7.75;;
52184;SDS011;38160;52.876;18.778;2022-08-25T16:30:17;26.23;;;7.50;;
52184;SDS011;38160;52.876;18.778;2022-08-25T16:32:49;29.72;;;7.40;;
52184;SDS011;38160;52.876;18.778;2022-08-25T16:35:21;20.92;;;6.97;;
52184;SDS011;38160;52.876;18.778;2022-08-25T16:37:55;25.27;;;7.00;;
52184;SDS011;38160;52.876;18.778;2022-08-25T16:40:26;27.17;;;7.60;;
52184;SDS011;38160;52.876;18.778;2022-08-25T16:42:58;28.20;;;6.97;;
52184;SDS011;38160;52.876;18.778;2022-08-25T16:45:29;28.27;;;7.12;;
52184;SDS011;38160;52.876;18.778;2022-08-25T16:48:02;28.47;;;7.08;;
52184;SDS011;38160;52.876;18.778;2022-08-25T16:50:37;29.70;;;6.95;;
52184;SDS011;38160;52.876;18.778;2022-08-25T17:04:45;32.15;;;7.08;;
52184;SDS011;38160;52.876;18.778;2022-08-25T17:20:20;28.73;;;9.87;;
52184;SDS011;38160;52.876;18.778;2022-08-25T17:23:21;29.70;;;8.33;;
52184;SDS011;38160;52.876;18.778;2022-08-25T17:25:53;31.45;;;9.63;;
52184;SDS011;38160;52.876;18.778;2022-08-25T17:28:31;26.85;;;8.53;;
52184;SDS011;38160;52.876;18.778;2022-08-25T17:31:03;25.75;;;8.38;;
52184;SDS011;38160;52.876;18.778;2022-08-25T17:33:35;21.87;;;8.33;;
52184;SDS011;38160;52.876;18.778;2022-08-25T17:36:09;36.73;;;9.48;;
52184;SDS011;38160;52.876;18.778;2022-08-25T17:38:43;32.15;;;10.18;;
52184;SDS011;38160;52.876;18.778;2022-08-25T17:41:15;30.77;;;9.78;;
52184;SDS011;38160;52.876;18.778;2022-08-25T17:43:47;29.82;;;10.38;;
52184;SDS011;38160;52.876;18.778;2022-08-25T17:46:19;28.30;;;9.78;;
52184;SDS011;38160;52.876;18.778;2022-08-25T17:48:54;26.05;;;9.90;;
52184;SDS011;38160;52.876;18.778;2022-08-25T17:51:27;26.80;;;9.18;;
52184;SDS011;38160;52.876;18.778;2022-08-25T17:53:59;29.23;;;9.73;;
52184;SDS011;38160;52.876;18.778;2022-08-25T17:56:31;24.82;;;9.20;;
52184;SDS011;38160;52.876;18.778;2022-08-25T17:59:03;29.42;;;10.43;;
52184;SDS011;38160;52.876;18.778;2022-08-25T18:01:37;28.12;;;11.68;;
52184;SDS011;38160;52.876;18.778;2022-08-25T18:10:49;29.90;;;10.63;;
52184;SDS011;38160;52.876;18.778;2022-08-25T18:13:47;31.02;;;11.73;;
52184;SDS011;38160;52.876;18.778;2022-08-25T18:16:21;25.05;;;9.08;;
52184;SDS011;38160;52.876;18.778;2022-08-25T18:18:54;26.95;;;10.18;;
52184;SDS011;38160;52.876;18.778;2022-08-25T18:21:28;21.20;;;10.20;;
52184;SDS011;38160;52.876;18.778;2022-08-25T18:24:01;26.20;;;10.50;;
52184;SDS011;38160;52.876;18.778;2022-08-25T18:26:40;27.05;;;10.98;;
52184;SDS011;38160;52.876;18.778;2022-08-25T18:32:22;38.38;;;14.10;;
52184;SDS011;38160;52.876;18.778;2022-08-25T18:35:00;29.23;;;11.63;;
52184;SDS011;38160;52.876;18.778;2022-08-25T18:37:32;32.00;;;11.28;;
52184;SDS011;38160;52.876;18.778;2022-08-25T18:40:22;25.62;;;12.55;;
52184;SDS011;38160;52.876;18.778;2022-08-25T18:43:04;36.23;;;11.53;;
52184;SDS011;38160;52.876;18.778;2022-08-25T18:45:39;23.98;;;12.15;;
52184;SDS011;38160;52.876;18.778;2022-08-25T18:48:20;28.62;;;13.93;;
52184;SDS011;38160;52.876;18.778;2022-08-25T18:50:55;32.63;;;14.90;;
52184;SDS011;38160;52.876;18.778;2022-08-25T18:53:28;29.50;;;13.48;;
52184;SDS011;38160;52.876;18.778;2022-08-25T19:01:56;24.92;;;11.83;;
52184;SDS011;38160;52.876;18.778;2022-08-25T19:04:28;28.65;;;12.37;;
52184;SDS011;38160;52.876;18.778;2022-08-25T19:07:01;26.85;;;13.40;;
52184;SDS011;38160;52.876;18.778;2022-08-25T19:09:33;25.48;;;12.35;;
52184;SDS011;38160;52.876;18.778;2022-08-25T19:12:06;29.50;;;12.80;;
52184;SDS011;38160;52.876;18.778;2022-08-25T19:14:37;23.92;;;12.23;;
52184;SDS011;38160;52.876;18.778;2022-08-25T19:17:09;26.27;;;12.43;;
52184;SDS011;38160;52.876;18.778;2022-08-25T19:19:41;24.37;;;11.80;;
52184;SDS011;38160;52.876;18.778;2022-08-25T19:22:13;27.20;;;12.58;;
52184;SDS011;38160;52.876;18.778;2022-08-25T19:24:45;28.77;;;12.98;;
52184;SDS011;38160;52.876;18.778;2022-08-25T19:27:16;23.45;;;12.78;;
52184;SDS011;38160;52.876;18.778;2022-08-25T19:29:52;23.35;;;12.60;;
52184;SDS011;38160;52.876;18.778;2022-08-25T19:32:24;21.57;;;13.00;;
52184;SDS011;38160;52.876;18.778;2022-08-25T19:35:01;27.10;;;13.30;;
52184;SDS011;38160;52.876;18.778;2022-08-25T19:37:38;28.57;;;12.78;;
52184;SDS011;38160;52.876;18.778;2022-08-25T19:40:28;21.65;;;12.47;;